createdAt,value
2015-08-11T00:00:10.081Z,8.95
2015-08-11T00:00:22.471Z,8.89
2015-08-11T00:00:34.848Z,8.9
2015-08-11T00:00:47.239Z,8.95
2015-08-11T00:00:59.645Z,9.01
2015-08-11T00:01:12.067Z,8.87
2015-08-11T00:01:24.473Z,8.89
2015-08-11T00:01:36.881Z,8.95
2015-08-11T00:01:49.272Z,8.87
2015-08-11T00:02:01.678Z,8.98
2015-08-11T00:02:14.085Z,8.98
2015-08-11T00:02:26.491Z,8.94
2015-08-11T00:02:38.916Z,8.97
2015-08-11T00:02:51.306Z,8.94
2015-08-11T00:03:03.713Z,8.92
2015-08-11T00:03:16.150Z,8.95
2015-08-11T00:03:28.525Z,8.94
2015-08-11T00:03:40.902Z,8.95
2015-08-11T00:03:53.277Z,8.94
2015-08-11T00:04:05.652Z,8.9
2015-08-11T00:04:18.027Z,8.9
2015-08-11T00:04:30.418Z,8.95
2015-08-11T00:04:42.809Z,8.9
2015-08-11T00:04:55.184Z,8.92
2015-08-11T00:05:07.575Z,9.01
2015-08-11T00:05:19.950Z,8.97
2015-08-11T00:05:32.325Z,8.92
2015-08-11T00:05:44.703Z,8.9
2015-08-11T00:05:57.078Z,9
2015-08-11T00:06:09.453Z,8.83
2015-08-11T00:06:21.828Z,8.86
2015-08-11T00:06:34.203Z,8.94
2015-08-11T00:06:46.579Z,8.85
2015-08-11T00:06:58.954Z,8.92
2015-08-11T00:07:11.329Z,8.82
2015-08-11T00:07:23.704Z,8.95
2015-08-11T00:07:36.079Z,8.83
2015-08-11T00:07:48.472Z,8.94
2015-08-11T00:08:00.831Z,9
2015-08-11T00:08:13.206Z,8.95
2015-08-11T00:08:25.597Z,9
2015-08-11T00:08:37.956Z,8.9
2015-08-11T00:08:50.333Z,8.97
2015-08-11T00:09:02.708Z,8.97
2015-08-11T00:09:15.099Z,8.95
2015-08-11T00:09:27.489Z,8.94
2015-08-11T00:09:39.880Z,8.97
2015-08-11T00:09:52.258Z,8.89
2015-08-11T00:10:04.648Z,8.94
2015-08-11T00:10:17.039Z,8.83
2015-08-11T00:10:29.445Z,8.83
2015-08-11T00:10:41.867Z,8.95
2015-08-11T00:10:54.274Z,8.85
2015-08-11T00:11:06.681Z,8.95
2015-08-11T00:11:19.087Z,8.79
2015-08-11T00:11:31.493Z,8.9
2015-08-11T00:11:43.181Z,8.86
2015-08-11T00:11:55.573Z,8.83
2015-08-11T00:12:07.995Z,8.92
2015-08-11T00:12:20.417Z,8.87
2015-08-11T00:12:32.808Z,8.8
2015-08-11T00:12:45.214Z,8.85
2015-08-11T00:12:56.936Z,8.87
2015-08-11T00:13:09.311Z,8.89
2015-08-11T00:13:21.686Z,8.9
2015-08-11T00:13:34.045Z,8.85
2015-08-11T00:13:46.279Z,8.83
2015-08-11T00:13:58.655Z,8.82
2015-08-11T00:14:11.015Z,8.89
2015-08-11T00:14:23.405Z,8.87
2015-08-11T00:14:35.780Z,8.94
2015-08-11T00:14:48.218Z,8.89
2015-08-11T00:15:00.596Z,8.8
2015-08-11T00:15:12.971Z,8.85
2015-08-11T00:15:25.346Z,8.8
2015-08-11T00:15:37.721Z,8.79
2015-08-11T00:15:50.096Z,8.76
2015-08-11T00:16:02.488Z,8.89
2015-08-11T00:16:14.863Z,8.83
2015-08-11T00:16:27.238Z,8.83
2015-08-11T00:16:39.613Z,8.9
2015-08-11T00:16:51.972Z,8.85
2015-08-11T00:17:04.349Z,8.86
2015-08-11T00:17:16.724Z,8.83
2015-08-11T00:17:29.130Z,8.83
2015-08-11T00:17:41.505Z,8.82
2015-08-11T00:17:53.880Z,8.79
2015-08-11T00:18:06.257Z,8.85
2015-08-11T00:18:18.632Z,8.85
2015-08-11T00:18:31.023Z,8.79
2015-08-11T00:18:43.398Z,8.82
2015-08-11T00:18:55.773Z,8.72
2015-08-11T00:19:08.165Z,8.8
2015-08-11T00:19:20.556Z,8.74
2015-08-11T00:19:32.931Z,8.71
2015-08-11T00:19:45.322Z,8.71
2015-08-11T00:19:57.697Z,8.76
2015-08-11T00:20:10.122Z,8.74
2015-08-11T00:20:22.528Z,8.76
2015-08-11T00:20:34.934Z,8.69
2015-08-11T00:20:47.340Z,8.72
2015-08-11T00:20:59.731Z,8.79
2015-08-11T00:21:12.138Z,8.6
2015-08-11T00:21:24.529Z,8.62
2015-08-11T00:21:36.935Z,8.69
2015-08-11T00:21:49.373Z,8.57
2015-08-11T00:22:01.779Z,8.67
2015-08-11T00:22:14.156Z,8.61
2015-08-11T00:22:26.531Z,8.57
2015-08-11T00:22:38.906Z,8.62
2015-08-11T00:22:51.265Z,8.65
2015-08-11T00:23:03.640Z,8.65
2015-08-11T00:23:16.017Z,8.61
2015-08-11T00:23:28.392Z,8.69
2015-08-11T00:23:40.767Z,8.6
2015-08-11T00:23:53.158Z,8.67
2015-08-11T00:24:05.517Z,8.61
2015-08-11T00:24:17.894Z,8.58
2015-08-11T00:24:30.269Z,8.53
2015-08-11T00:24:42.629Z,8.52
2015-08-11T00:24:55.004Z,8.57
2015-08-11T00:25:07.379Z,8.54
2015-08-11T00:25:19.771Z,8.54
2015-08-11T00:25:32.146Z,8.52
2015-08-11T00:25:44.521Z,8.58
2015-08-11T00:25:56.896Z,8.52
2015-08-11T00:26:09.271Z,8.54
2015-08-11T00:26:21.648Z,8.5
2015-08-11T00:26:34.039Z,8.53
2015-08-11T00:26:46.414Z,8.49
2015-08-11T00:26:58.789Z,8.53
2015-08-11T00:27:11.179Z,8.57
2015-08-11T00:27:23.556Z,8.46
2015-08-11T00:27:35.931Z,8.42
2015-08-11T00:27:48.306Z,8.36
2015-08-11T00:28:00.681Z,8.44
2015-08-11T00:28:13.072Z,8.47
2015-08-11T00:28:25.465Z,8.46
2015-08-11T00:28:37.840Z,8.44
2015-08-11T00:28:50.230Z,8.47
2015-08-11T00:29:02.621Z,8.46
2015-08-11T00:29:15.012Z,8.47
2015-08-11T00:29:27.435Z,8.47
2015-08-11T00:29:39.842Z,8.47
2015-08-11T00:29:52.248Z,8.6
2015-08-11T00:30:04.654Z,8.4
2015-08-11T00:30:17.045Z,8.49
2015-08-11T00:30:29.453Z,8.47
2015-08-11T00:30:41.859Z,8.54
2015-08-11T00:30:54.281Z,8.44
2015-08-11T00:31:06.656Z,8.44
2015-08-11T00:31:19.031Z,8.47
2015-08-11T00:31:31.408Z,8.44
2015-08-11T00:31:43.783Z,8.42
2015-08-11T00:31:56.158Z,8.49
2015-08-11T00:32:08.533Z,8.36
2015-08-11T00:32:20.908Z,8.42
2015-08-11T00:32:32.582Z,8.39
2015-08-11T00:32:44.957Z,8.43
2015-08-11T00:32:57.332Z,8.44
2015-08-11T00:33:09.707Z,8.46
2015-08-11T00:33:22.082Z,8.43
2015-08-11T00:33:34.459Z,8.4
2015-08-11T00:33:46.834Z,8.43
2015-08-11T00:33:59.209Z,8.43
2015-08-11T00:34:11.600Z,8.46
2015-08-11T00:34:23.975Z,8.42
2015-08-11T00:34:36.336Z,8.5
2015-08-11T00:34:48.711Z,8.44
2015-08-11T00:35:01.102Z,8.47
2015-08-11T00:35:13.477Z,8.46
2015-08-11T00:35:25.867Z,8.4
2015-08-11T00:35:38.244Z,8.46
2015-08-11T00:35:50.619Z,8.42
2015-08-11T00:36:03.010Z,8.4
2015-08-11T00:36:15.385Z,8.53
2015-08-11T00:36:27.760Z,8.34
2015-08-11T00:36:40.153Z,8.46
2015-08-11T00:36:52.559Z,8.43
2015-08-11T00:37:04.934Z,8.46
2015-08-11T00:37:17.324Z,8.39
2015-08-11T00:37:29.715Z,8.42
2015-08-11T00:37:42.108Z,8.42
2015-08-11T00:37:54.498Z,8.5
2015-08-11T00:38:06.905Z,8.4
2015-08-11T00:38:19.311Z,8.43
2015-08-11T00:38:31.717Z,8.46
2015-08-11T00:38:44.125Z,8.43
2015-08-11T00:38:56.532Z,8.46
2015-08-11T00:39:08.922Z,8.43
2015-08-11T00:39:21.360Z,8.35
2015-08-11T00:39:33.750Z,8.39
2015-08-11T00:39:46.127Z,8.42
2015-08-11T00:39:58.502Z,8.35
2015-08-11T00:40:10.862Z,8.39
2015-08-11T00:40:23.252Z,8.42
2015-08-11T00:40:35.643Z,8.4
2015-08-11T00:40:48.020Z,8.43
2015-08-11T00:41:00.395Z,8.39
2015-08-11T00:41:12.770Z,8.44
2015-08-11T00:41:25.145Z,8.36
2015-08-11T00:41:37.520Z,8.46
2015-08-11T00:41:49.897Z,8.44
2015-08-11T00:42:02.272Z,8.44
2015-08-11T00:42:14.647Z,8.36
2015-08-11T00:42:27.038Z,8.36
2015-08-11T00:42:39.413Z,8.42
2015-08-11T00:42:51.774Z,8.4
2015-08-11T00:43:04.149Z,8.43
2015-08-11T00:43:16.524Z,8.44
2015-08-11T00:43:28.899Z,8.43
2015-08-11T00:43:41.274Z,8.4
2015-08-11T00:43:53.651Z,8.35
2015-08-11T00:44:06.026Z,8.36
2015-08-11T00:44:18.401Z,8.35
2015-08-11T00:44:30.776Z,8.39
2015-08-11T00:44:43.151Z,8.36
2015-08-11T00:44:55.528Z,8.35
2015-08-11T00:45:07.903Z,8.31
2015-08-11T00:45:19.559Z,8.29
2015-08-11T00:45:31.965Z,8.4
2015-08-11T00:45:44.340Z,8.36
2015-08-11T00:45:56.733Z,8.34
2015-08-11T00:46:09.108Z,8.29
2015-08-11T00:46:21.514Z,8.28
2015-08-11T00:46:33.921Z,8.32
2015-08-11T00:46:46.327Z,8.29
2015-08-11T00:46:58.735Z,8.35
2015-08-11T00:47:11.141Z,8.36
2015-08-11T00:47:23.548Z,8.31
2015-08-11T00:47:35.938Z,8.32
2015-08-11T00:47:48.344Z,8.29
2015-08-11T00:48:00.737Z,8.35
2015-08-11T00:48:13.159Z,8.32
2015-08-11T00:48:25.565Z,8.22
2015-08-11T00:48:37.971Z,8.28
2015-08-11T00:48:50.362Z,8.25
2015-08-11T00:49:02.739Z,8.19
2015-08-11T00:49:15.130Z,8.29
2015-08-11T00:49:27.505Z,8.26
2015-08-11T00:49:39.880Z,8.19
2015-08-11T00:49:52.255Z,8.17
2015-08-11T00:50:04.632Z,8.19
2015-08-11T00:50:17.007Z,8.17
2015-08-11T00:50:29.382Z,8.24
2015-08-11T00:50:41.757Z,8.14
2015-08-11T00:50:54.147Z,8.21
2015-08-11T00:51:06.524Z,8.14
2015-08-11T00:51:18.915Z,8.14
2015-08-11T00:51:31.290Z,8.17
2015-08-11T00:51:43.665Z,8.16
2015-08-11T00:51:56.040Z,8.16
2015-08-11T00:52:08.417Z,8.13
2015-08-11T00:52:20.792Z,8.13
2015-08-11T00:52:33.167Z,8.16
2015-08-11T00:52:45.542Z,8.17
2015-08-11T00:52:57.917Z,8.14
2015-08-11T00:53:10.310Z,8.19
2015-08-11T00:53:22.669Z,8.22
2015-08-11T00:53:35.044Z,8.21
2015-08-11T00:53:47.419Z,8.13
2015-08-11T00:53:59.794Z,8.1
2015-08-11T00:54:12.171Z,8.16
2015-08-11T00:54:24.546Z,8.09
2015-08-11T00:54:36.921Z,8.19
2015-08-11T00:54:49.327Z,8.19
2015-08-11T00:55:01.702Z,8.14
2015-08-11T00:55:14.095Z,8.1
2015-08-11T00:55:26.485Z,8.09
2015-08-11T00:55:38.876Z,8.13
2015-08-11T00:55:51.267Z,8.06
2015-08-11T00:56:03.689Z,8.14
2015-08-11T00:56:15.394Z,8.16
2015-08-11T00:56:27.816Z,8.16
2015-08-11T00:56:40.206Z,8.14
2015-08-11T00:56:52.628Z,8.16
2015-08-11T00:57:04.331Z,8.16
2015-08-11T00:57:16.738Z,8.21
2015-08-11T00:57:29.160Z,8.06
2015-08-11T00:57:40.848Z,8.1
2015-08-11T00:57:53.270Z,8.11
2015-08-11T00:58:05.645Z,8.1
2015-08-11T00:58:18.022Z,8.06
2015-08-11T00:58:30.397Z,8.1
2015-08-11T00:58:42.772Z,8.09
2015-08-11T00:58:55.131Z,8.1
2015-08-11T00:59:07.506Z,8.11
2015-08-11T00:59:19.883Z,8.14
2015-08-11T00:59:32.274Z,8.04
2015-08-11T00:59:44.649Z,8.16
2015-08-11T00:59:57.008Z,8.04
2015-08-11T01:00:09.383Z,8.07
2015-08-11T01:00:21.058Z,8.1
2015-08-11T01:00:33.417Z,8.03
2015-08-11T01:00:45.808Z,8.09
2015-08-11T01:00:58.199Z,8.1
2015-08-11T01:01:10.558Z,8.14
2015-08-11T01:01:22.934Z,8.09
2015-08-11T01:01:35.325Z,8.06
2015-08-11T01:01:47.700Z,8.14
2015-08-11T01:02:00.075Z,8.19
2015-08-11T01:02:12.450Z,8.19
2015-08-11T01:02:24.842Z,8.09
2015-08-11T01:02:37.217Z,8.16
2015-08-11T01:02:49.592Z,8.13
2015-08-11T01:03:01.967Z,8.09
2015-08-11T01:03:14.342Z,8.14
2015-08-11T01:03:26.719Z,8.13
2015-08-11T01:03:39.094Z,8.11
2015-08-11T01:03:51.485Z,8.07
2015-08-11T01:04:03.860Z,8.11
2015-08-11T01:04:16.250Z,8.11
2015-08-11T01:04:28.644Z,8.1
2015-08-11T01:04:41.128Z,8.1
2015-08-11T01:04:53.519Z,8.06
2015-08-11T01:05:05.925Z,8.1
2015-08-11T01:05:18.347Z,8.1
2015-08-11T01:05:30.739Z,8.07
2015-08-11T01:05:43.161Z,8.16
2015-08-11T01:05:55.567Z,8.1
2015-08-11T01:06:07.958Z,8.19
2015-08-11T01:06:20.348Z,8.11
2015-08-11T01:06:32.600Z,8.04
2015-08-11T01:06:44.991Z,8.09
2015-08-11T01:06:57.397Z,8.13
2015-08-11T01:07:09.788Z,8.21
2015-08-11T01:07:21.475Z,8.13
2015-08-11T01:07:33.852Z,8.16
2015-08-11T01:07:46.227Z,8.14
2015-08-11T01:07:58.602Z,8.17
2015-08-11T01:08:10.977Z,8.11
2015-08-11T01:08:23.368Z,8.13
2015-08-11T01:08:35.760Z,8.17
2015-08-11T01:08:48.135Z,8.06
2015-08-11T01:09:00.510Z,8.14
2015-08-11T01:09:12.901Z,8.14
2015-08-11T01:09:25.276Z,8.16
2015-08-11T01:09:37.653Z,8.19
2015-08-11T01:09:50.028Z,8.14
2015-08-11T01:10:02.419Z,8.1
2015-08-11T01:10:14.809Z,8.19
2015-08-11T01:10:27.200Z,8.13
2015-08-11T01:10:39.577Z,8.14
2015-08-11T01:10:51.952Z,8.19
2015-08-11T01:11:04.327Z,8.11
2015-08-11T01:11:16.702Z,8.17
2015-08-11T01:11:29.077Z,8.14
2015-08-11T01:11:40.735Z,8.1
2015-08-11T01:11:53.126Z,8.13
2015-08-11T01:12:05.485Z,8.16
2015-08-11T01:12:17.876Z,8.16
2015-08-11T01:12:30.251Z,8.17
2015-08-11T01:12:42.628Z,8.19
2015-08-11T01:12:55.065Z,8.14
2015-08-11T01:13:07.440Z,8.17
2015-08-11T01:13:19.831Z,8.19
2015-08-11T01:13:32.206Z,8.16
2015-08-11T01:13:44.599Z,8.17
2015-08-11T01:13:56.989Z,8.22
2015-08-11T01:14:09.364Z,8.17
2015-08-11T01:14:21.755Z,8.14
2015-08-11T01:14:34.161Z,8.24
2015-08-11T01:14:46.585Z,8.16
2015-08-11T01:14:58.991Z,8.17
2015-08-11T01:15:11.413Z,8.17
2015-08-11T01:15:23.819Z,8.14
2015-08-11T01:15:36.226Z,8.14
2015-08-11T01:15:48.618Z,8.16
2015-08-11T01:16:01.040Z,8.16
2015-08-11T01:16:13.431Z,8.19
2015-08-11T01:16:25.837Z,8.13
2015-08-11T01:16:38.259Z,8.16
2015-08-11T01:16:49.917Z,8.19
2015-08-11T01:17:02.308Z,8.13
2015-08-11T01:17:14.683Z,8.17
2015-08-11T01:17:27.058Z,8.19
2015-08-11T01:17:39.433Z,8.21
2015-08-11T01:17:51.810Z,8.17
2015-08-11T01:18:04.185Z,8.22
2015-08-11T01:18:16.575Z,8.21
2015-08-11T01:18:28.950Z,8.13
2015-08-11T01:18:41.325Z,8.24
2015-08-11T01:18:53.687Z,8.28
2015-08-11T01:19:06.093Z,8.16
2015-08-11T01:19:18.468Z,8.31
2015-08-11T01:19:30.843Z,8.17
2015-08-11T01:19:43.218Z,8.13
2015-08-11T01:19:55.595Z,8.29
2015-08-11T01:20:07.970Z,8.13
2015-08-11T01:20:20.345Z,8.28
2015-08-11T01:20:32.720Z,8.21
2015-08-11T01:20:45.095Z,8.28
2015-08-11T01:20:57.472Z,8.19
2015-08-11T01:21:09.847Z,8.34
2015-08-11T01:21:22.222Z,8.31
2015-08-11T01:21:34.597Z,8.22
2015-08-11T01:21:46.972Z,8.29
2015-08-11T01:21:59.349Z,8.31
2015-08-11T01:22:11.724Z,8.22
2015-08-11T01:22:24.099Z,8.22
2015-08-11T01:22:36.490Z,8.29
2015-08-11T01:22:48.880Z,8.28
2015-08-11T01:23:01.256Z,8.25
2015-08-11T01:23:13.647Z,8.36
2015-08-11T01:23:26.022Z,8.24
2015-08-11T01:23:38.428Z,8.36
2015-08-11T01:23:50.834Z,8.35
2015-08-11T01:24:03.259Z,8.36
2015-08-11T01:24:15.650Z,8.31
2015-08-11T01:24:28.056Z,8.31
2015-08-11T01:24:40.462Z,8.25
2015-08-11T01:24:52.869Z,8.34
2015-08-11T01:25:05.260Z,8.28
2015-08-11T01:25:17.682Z,8.35
2015-08-11T01:25:30.104Z,8.35
2015-08-11T01:25:42.495Z,8.35
2015-08-11T01:25:54.901Z,8.29
2015-08-11T01:26:07.294Z,8.29
2015-08-11T01:26:19.669Z,8.42
2015-08-11T01:26:32.060Z,8.34
2015-08-11T01:26:44.435Z,8.31
2015-08-11T01:26:56.810Z,8.35
2015-08-11T01:27:09.187Z,8.39
2015-08-11T01:27:21.562Z,8.29
2015-08-11T01:27:33.937Z,8.26
2015-08-11T01:27:46.312Z,8.36
2015-08-11T01:27:58.000Z,8.29
2015-08-11T01:28:10.377Z,8.28
2015-08-11T01:28:22.752Z,8.28
2015-08-11T01:28:35.111Z,8.39
2015-08-11T01:28:47.486Z,8.31
2015-08-11T01:28:59.861Z,8.34
2015-08-11T01:29:12.253Z,8.31
2015-08-11T01:29:24.643Z,8.32
2015-08-11T01:29:37.018Z,8.31
2015-08-11T01:29:48.690Z,8.39
2015-08-11T01:30:01.081Z,8.32
2015-08-11T01:30:13.459Z,8.35
2015-08-11T01:30:25.834Z,8.32
2015-08-11T01:30:38.224Z,8.32
2015-08-11T01:30:50.599Z,8.32
2015-08-11T01:31:02.974Z,8.35
2015-08-11T01:31:15.367Z,8.31
2015-08-11T01:31:27.742Z,8.32
2015-08-11T01:31:40.117Z,8.31
2015-08-11T01:31:52.492Z,8.36
2015-08-11T01:32:04.883Z,8.44
2015-08-11T01:32:17.274Z,8.39
2015-08-11T01:32:29.649Z,8.35
2015-08-11T01:32:42.040Z,8.36
2015-08-11T01:32:54.430Z,8.4
2015-08-11T01:33:06.821Z,8.31
2015-08-11T01:33:19.229Z,8.39
2015-08-11T01:33:31.651Z,8.39
2015-08-11T01:33:44.057Z,8.34
2015-08-11T01:33:56.464Z,8.39
2015-08-11T01:34:08.167Z,8.36
2015-08-11T01:34:20.559Z,8.43
2015-08-11T01:34:32.966Z,8.46
2015-08-11T01:34:45.403Z,8.36
2015-08-11T01:34:57.809Z,8.43
2015-08-11T01:35:10.200Z,8.42
2015-08-11T01:35:22.608Z,8.44
2015-08-11T01:35:35.030Z,8.39
2015-08-11T01:35:47.405Z,8.4
2015-08-11T01:35:59.780Z,8.36
2015-08-11T01:36:12.155Z,8.43
2015-08-11T01:36:24.532Z,8.43
2015-08-11T01:36:36.907Z,8.42
2015-08-11T01:36:49.282Z,8.42
2015-08-11T01:37:01.657Z,8.39
2015-08-11T01:37:14.032Z,8.39
2015-08-11T01:37:26.410Z,8.4
2015-08-11T01:37:38.785Z,8.42
2015-08-11T01:37:51.160Z,8.39
2015-08-11T01:38:03.535Z,8.43
2015-08-11T01:38:15.926Z,8.4
2015-08-11T01:38:28.302Z,8.35
2015-08-11T01:38:40.708Z,8.4
2015-08-11T01:38:53.083Z,8.46
2015-08-11T01:39:05.458Z,8.42
2015-08-11T01:39:17.833Z,8.43
2015-08-11T01:39:30.211Z,8.39
2015-08-11T01:39:42.586Z,8.36
2015-08-11T01:39:54.961Z,8.36
2015-08-11T01:40:07.352Z,8.32
2015-08-11T01:40:19.727Z,8.43
2015-08-11T01:40:32.103Z,8.36
2015-08-11T01:40:44.493Z,8.42
2015-08-11T01:40:56.868Z,8.44
2015-08-11T01:41:09.228Z,8.36
2015-08-11T01:41:21.603Z,8.43
2015-08-11T01:41:34.011Z,8.44
2015-08-11T01:41:46.386Z,8.44
2015-08-11T01:41:58.777Z,8.42
2015-08-11T01:42:11.167Z,8.42
2015-08-11T01:42:23.542Z,8.47
2015-08-11T01:42:35.967Z,8.44
2015-08-11T01:42:47.670Z,8.46
2015-08-11T01:43:00.092Z,8.46
2015-08-11T01:43:12.498Z,8.43
2015-08-11T01:43:24.905Z,8.39
2015-08-11T01:43:37.296Z,8.52
2015-08-11T01:43:49.702Z,8.4
2015-08-11T01:44:02.109Z,8.4
2015-08-11T01:44:14.515Z,8.42
2015-08-11T01:44:26.921Z,8.43
2015-08-11T01:44:39.345Z,8.4
2015-08-11T01:44:51.736Z,8.47
2015-08-11T01:45:04.158Z,8.46
2015-08-11T01:45:16.548Z,8.44
2015-08-11T01:45:28.923Z,8.46
2015-08-11T01:45:41.300Z,8.44
2015-08-11T01:45:53.675Z,8.46
2015-08-11T01:46:06.050Z,8.46
2015-08-11T01:46:18.441Z,8.46
2015-08-11T01:46:30.816Z,8.4
2015-08-11T01:46:43.178Z,8.44
2015-08-11T01:46:55.553Z,8.46
2015-08-11T01:47:07.928Z,8.43
2015-08-11T01:47:20.288Z,8.42
2015-08-11T01:47:32.663Z,8.42
2015-08-11T01:47:45.039Z,8.44
2015-08-11T01:47:57.414Z,8.47
2015-08-11T01:48:09.804Z,8.43
2015-08-11T01:48:22.179Z,8.42
2015-08-11T01:48:34.554Z,8.46
2015-08-11T01:48:46.931Z,8.47
2015-08-11T01:48:59.306Z,8.42
2015-08-11T01:49:11.681Z,8.43
2015-08-11T01:49:24.056Z,8.4
2015-08-11T01:49:35.728Z,8.49
2015-08-11T01:49:48.121Z,8.43
2015-08-11T01:49:59.777Z,8.49
2015-08-11T01:50:12.152Z,8.42
2015-08-11T01:50:24.527Z,8.49
2015-08-11T01:50:36.918Z,8.42
2015-08-11T01:50:49.295Z,8.43
2015-08-11T01:51:01.670Z,8.39
2015-08-11T01:51:14.060Z,8.43
2015-08-11T01:51:26.451Z,8.49
2015-08-11T01:51:38.841Z,8.44
2015-08-11T01:51:51.235Z,8.5
2015-08-11T01:52:03.626Z,8.49
2015-08-11T01:52:16.032Z,8.49
2015-08-11T01:52:28.438Z,8.57
2015-08-11T01:52:40.860Z,8.49
2015-08-11T01:52:53.283Z,8.47
2015-08-11T01:53:05.689Z,8.47
2015-08-11T01:53:18.111Z,8.52
2015-08-11T01:53:30.517Z,8.52
2015-08-11T01:53:42.924Z,8.5
2015-08-11T01:53:55.347Z,8.52
2015-08-11T01:54:07.738Z,8.58
2015-08-11T01:54:20.144Z,8.53
2015-08-11T01:54:32.566Z,8.5
2015-08-11T01:54:44.941Z,8.54
2015-08-11T01:54:57.318Z,8.53
2015-08-11T01:55:09.693Z,8.53
2015-08-11T01:55:22.068Z,8.53
2015-08-11T01:55:34.443Z,8.52
2015-08-11T01:55:46.818Z,8.54
2015-08-11T01:55:59.180Z,8.5
2015-08-11T01:56:11.570Z,8.58
2015-08-11T01:56:23.945Z,8.52
2015-08-11T01:56:36.336Z,8.47
2015-08-11T01:56:48.711Z,8.52
2015-08-11T01:57:01.088Z,8.52
2015-08-11T01:57:12.760Z,8.5
2015-08-11T01:57:25.135Z,8.49
2015-08-11T01:57:37.525Z,8.58
2015-08-11T01:57:49.900Z,8.5
2015-08-11T01:58:02.277Z,8.57
2015-08-11T01:58:14.652Z,8.54
2015-08-11T01:58:27.027Z,8.52
2015-08-11T01:58:39.402Z,8.5
2015-08-11T01:58:51.777Z,8.52
2015-08-11T01:59:04.154Z,8.53
2015-08-11T01:59:16.545Z,8.53
2015-08-11T01:59:28.920Z,8.57
2015-08-11T01:59:41.295Z,8.57
2015-08-11T01:59:53.670Z,8.52
2015-08-11T02:00:06.047Z,8.54
2015-08-11T02:00:18.422Z,8.54
2015-08-11T02:00:30.813Z,8.54
2015-08-11T02:00:43.203Z,8.52
2015-08-11T02:00:55.594Z,8.52
2015-08-11T02:01:07.971Z,8.52
2015-08-11T02:01:20.377Z,8.53
2015-08-11T02:01:32.752Z,8.54
2015-08-11T02:01:45.158Z,8.57
2015-08-11T02:01:57.580Z,8.54
2015-08-11T02:02:09.988Z,8.64
2015-08-11T02:02:22.254Z,8.58
2015-08-11T02:02:34.660Z,8.54
2015-08-11T02:02:47.067Z,8.5
2015-08-11T02:02:59.457Z,8.52
2015-08-11T02:03:11.881Z,8.54
2015-08-11T02:03:24.287Z,8.57
2015-08-11T02:03:36.694Z,8.53
2015-08-11T02:03:49.100Z,8.6
2015-08-11T02:04:00.787Z,8.54
2015-08-11T02:04:13.196Z,8.5
2015-08-11T02:04:25.586Z,8.6
2015-08-11T02:04:37.977Z,8.57
2015-08-11T02:04:50.336Z,8.58
2015-08-11T02:05:02.711Z,8.58
2015-08-11T02:05:15.104Z,8.53
2015-08-11T02:05:27.479Z,8.58
2015-08-11T02:05:39.854Z,8.61
2015-08-11T02:05:52.229Z,8.6
2015-08-11T02:06:04.619Z,8.57
2015-08-11T02:06:17.012Z,8.57
2015-08-11T02:06:29.371Z,8.54
2015-08-11T02:06:41.746Z,8.57
2015-08-11T02:06:54.137Z,8.54
2015-08-11T02:07:06.512Z,8.53
2015-08-11T02:07:18.889Z,8.58
2015-08-11T02:07:31.280Z,8.61
2015-08-11T02:07:43.670Z,8.57
2015-08-11T02:07:56.045Z,8.53
2015-08-11T02:08:08.420Z,8.52
2015-08-11T02:08:20.797Z,8.54
2015-08-11T02:08:33.172Z,8.53
2015-08-11T02:08:45.547Z,8.52
2015-08-11T02:08:57.938Z,8.5
2015-08-11T02:09:10.313Z,8.61
2015-08-11T02:09:22.690Z,8.52
2015-08-11T02:09:35.065Z,8.53
2015-08-11T02:09:47.456Z,8.58
2015-08-11T02:09:59.831Z,8.5
2015-08-11T02:10:12.190Z,8.53
2015-08-11T02:10:24.597Z,8.52
2015-08-11T02:10:36.988Z,8.53
2015-08-11T02:10:49.363Z,8.53
2015-08-11T02:11:01.753Z,8.47
2015-08-11T02:11:14.144Z,8.5
2015-08-11T02:11:26.553Z,8.43
2015-08-11T02:11:38.960Z,8.46
2015-08-11T02:11:51.366Z,8.44
2015-08-11T02:12:03.772Z,8.49
2015-08-11T02:12:16.178Z,8.52
2015-08-11T02:12:28.587Z,8.6
2015-08-11T02:12:40.977Z,8.53
2015-08-11T02:12:53.383Z,8.57
2015-08-11T02:13:05.821Z,8.49
2015-08-11T02:13:18.227Z,8.5
2015-08-11T02:13:30.651Z,8.49
2015-08-11T02:13:43.057Z,8.46
2015-08-11T02:13:55.432Z,8.5
2015-08-11T02:14:07.807Z,8.54
2015-08-11T02:14:20.182Z,8.52
2015-08-11T02:14:32.558Z,8.52
2015-08-11T02:14:44.933Z,8.52
2015-08-11T02:14:57.324Z,8.61
2015-08-11T02:15:09.699Z,8.54
2015-08-11T02:15:22.074Z,8.57
2015-08-11T02:15:34.482Z,8.54
2015-08-11T02:15:46.138Z,8.6
2015-08-11T02:15:57.810Z,8.5
2015-08-11T02:16:10.185Z,8.53
2015-08-11T02:16:22.560Z,8.53
2015-08-11T02:16:34.937Z,8.54
2015-08-11T02:16:47.312Z,8.54
2015-08-11T02:16:59.687Z,8.53
2015-08-11T02:17:12.078Z,8.52
2015-08-11T02:17:24.453Z,8.53
2015-08-11T02:17:36.831Z,8.53
2015-08-11T02:17:48.487Z,8.57
2015-08-11T02:18:00.862Z,8.54
2015-08-11T02:18:13.253Z,8.54
2015-08-11T02:18:25.628Z,8.53
2015-08-11T02:18:38.005Z,8.54
2015-08-11T02:18:50.380Z,8.53
2015-08-11T02:19:02.739Z,8.57
2015-08-11T02:19:15.114Z,8.54
2015-08-11T02:19:27.505Z,8.58
2015-08-11T02:19:39.897Z,8.58
2015-08-11T02:19:52.272Z,8.57
2015-08-11T02:20:04.663Z,8.54
2015-08-11T02:20:17.038Z,8.64
2015-08-11T02:20:29.429Z,8.52
2015-08-11T02:20:41.820Z,8.5
2015-08-11T02:20:54.227Z,8.6
2015-08-11T02:21:06.633Z,8.54
2015-08-11T02:21:19.039Z,8.57
2015-08-11T02:21:31.461Z,8.6
2015-08-11T02:21:43.869Z,8.53
2015-08-11T02:21:56.275Z,8.58
2015-08-11T02:22:08.666Z,8.57
2015-08-11T02:22:21.072Z,8.53
2015-08-11T02:22:33.510Z,8.54
2015-08-11T02:22:45.918Z,8.57
2015-08-11T02:22:58.340Z,8.5
2015-08-11T02:23:10.715Z,8.57
2015-08-11T02:23:23.090Z,8.57
2015-08-11T02:23:35.465Z,8.54
2015-08-11T02:23:47.843Z,8.53
2015-08-11T02:24:00.218Z,8.53
2015-08-11T02:24:12.593Z,8.64
2015-08-11T02:24:24.968Z,8.54
2015-08-11T02:24:37.343Z,8.54
2015-08-11T02:24:49.719Z,8.54
2015-08-11T02:25:02.094Z,8.53
2015-08-11T02:25:14.469Z,8.58
2015-08-11T02:25:26.844Z,8.49
2015-08-11T02:25:39.219Z,8.53
2015-08-11T02:25:51.596Z,8.52
2015-08-11T02:26:03.971Z,8.5
2015-08-11T02:26:16.362Z,8.54
2015-08-11T02:26:28.737Z,8.53
2015-08-11T02:26:41.112Z,8.5
2015-08-11T02:26:53.489Z,8.53
2015-08-11T02:27:05.848Z,8.57
2015-08-11T02:27:18.223Z,8.54
2015-08-11T02:27:30.598Z,8.58
2015-08-11T02:27:42.989Z,8.53
2015-08-11T02:27:55.366Z,8.49
2015-08-11T02:28:07.741Z,8.54
2015-08-11T02:28:20.100Z,8.57
2015-08-11T02:28:32.475Z,8.52
2015-08-11T02:28:44.850Z,8.54
2015-08-11T02:28:57.227Z,8.53
2015-08-11T02:29:09.633Z,8.5
2015-08-11T02:29:22.024Z,8.53
2015-08-11T02:29:34.414Z,8.53
2015-08-11T02:29:46.789Z,8.47
2015-08-11T02:29:59.167Z,8.43
2015-08-11T02:30:11.558Z,8.5
2015-08-11T02:30:23.949Z,8.53
2015-08-11T02:30:36.339Z,8.53
2015-08-11T02:30:48.746Z,8.49
2015-08-11T02:31:01.153Z,8.46
2015-08-11T02:31:13.559Z,8.49
2015-08-11T02:31:25.950Z,8.49
2015-08-11T02:31:38.356Z,8.47
2015-08-11T02:31:50.778Z,8.5
2015-08-11T02:32:03.187Z,8.57
2015-08-11T02:32:15.593Z,8.49
2015-08-11T02:32:28.015Z,8.46
2015-08-11T02:32:40.390Z,8.43
2015-08-11T02:32:52.765Z,8.49
2015-08-11T02:33:05.142Z,8.46
2015-08-11T02:33:17.517Z,8.42
2015-08-11T02:33:29.892Z,8.53
2015-08-11T02:33:42.283Z,8.47
2015-08-11T02:33:54.658Z,8.46
2015-08-11T02:34:07.035Z,8.43
2015-08-11T02:34:18.707Z,8.42
2015-08-11T02:34:31.082Z,8.44
2015-08-11T02:34:43.457Z,8.4
2015-08-11T02:34:55.832Z,8.4
2015-08-11T02:35:08.208Z,8.44
2015-08-11T02:35:20.583Z,8.42
2015-08-11T02:35:32.973Z,8.35
2015-08-11T02:35:45.348Z,8.4
2015-08-11T02:35:57.723Z,8.42
2015-08-11T02:36:10.085Z,8.42
2015-08-11T02:36:22.475Z,8.43
2015-08-11T02:36:34.850Z,8.29
2015-08-11T02:36:47.225Z,8.43
2015-08-11T02:36:59.600Z,8.43
2015-08-11T02:37:11.978Z,8.43
2015-08-11T02:37:24.369Z,8.31
2015-08-11T02:37:36.744Z,8.35
2015-08-11T02:37:49.119Z,8.34
2015-08-11T02:38:01.494Z,8.4
2015-08-11T02:38:13.151Z,8.43
2015-08-11T02:38:25.557Z,8.4
2015-08-11T02:38:37.932Z,8.34
2015-08-11T02:38:50.323Z,8.36
2015-08-11T02:39:02.698Z,8.29
2015-08-11T02:39:15.091Z,8.31
2015-08-11T02:39:27.481Z,8.43
2015-08-11T02:39:39.888Z,8.36
2015-08-11T02:39:52.294Z,8.31
2015-08-11T02:40:04.700Z,8.35
2015-08-11T02:40:17.155Z,8.31
2015-08-11T02:40:29.577Z,8.31
2015-08-11T02:40:41.983Z,8.26
2015-08-11T02:40:53.655Z,8.39
2015-08-11T02:41:06.077Z,8.29
2015-08-11T02:41:18.485Z,8.28
2015-08-11T02:41:30.892Z,8.26
2015-08-11T02:41:43.282Z,8.29
2015-08-11T02:41:55.688Z,8.34
2015-08-11T02:42:08.126Z,8.35
2015-08-11T02:42:20.503Z,8.29
2015-08-11T02:42:32.878Z,8.35
2015-08-11T02:42:45.253Z,8.29
2015-08-11T02:42:57.628Z,8.31
2015-08-11T02:43:10.003Z,8.25
2015-08-11T02:43:22.380Z,8.24
2015-08-11T02:43:34.755Z,8.39
2015-08-11T02:43:47.130Z,8.35
2015-08-11T02:43:59.521Z,8.31
2015-08-11T02:44:11.880Z,8.24
2015-08-11T02:44:24.257Z,8.36
2015-08-11T02:44:36.632Z,8.34
2015-08-11T02:44:49.007Z,8.34
2015-08-11T02:45:01.382Z,8.35
2015-08-11T02:45:13.757Z,8.25